sensor_id;sensor_type;location;lat;lon;timestamp;temperature;humidity
54168;DHT22;68429;50.958;3.592;2023-04-06T00:01:40;9.10;96.60
54168;DHT22;68429;50.958;3.592;2023-04-06T00:04:06;9.00;97.40
54168;DHT22;68429;50.958;3.592;2023-04-06T00:06:32;9.10;97.90
54168;DHT22;68429;50.958;3.592;2023-04-06T00:08:58;9.00;98.20
54168;DHT22;68429;50.958;3.592;2023-04-06T00:11:25;9.00;98.60
54168;DHT22;68429;50.958;3.592;2023-04-06T00:13:51;9.00;98.80
54168;DHT22;68429;50.958;3.592;2023-04-06T00:16:17;9.00;99.30
54168;DHT22;68429;50.958;3.592;2023-04-06T00:18:42;9.00;99.80
54168;DHT22;68429;50.958;3.592;2023-04-06T00:21:11;8.90;99.90
54168;DHT22;68429;50.958;3.592;2023-04-06T00:23:38;8.80;99.90
54168;DHT22;68429;50.958;3.592;2023-04-06T00:26:04;8.80;99.90
54168;DHT22;68429;50.958;3.592;2023-04-06T00:28:30;8.70;99.90
54168;DHT22;68429;50.958;3.592;2023-04-06T00:30:56;8.60;99.90
54168;DHT22;68429;50.958;3.592;2023-04-06T00:33:22;8.50;99.90
54168;DHT22;68429;50.958;3.592;2023-04-06T00:35:48;8.40;99.90
54168;DHT22;68429;50.958;3.592;2023-04-06T00:38:15;8.40;99.90
54168;DHT22;68429;50.958;3.592;2023-04-06T00:40:41;8.40;99.90
54168;DHT22;68429;50.958;3.592;2023-04-06T00:43:07;8.50;99.90
54168;DHT22;68429;50.958;3.592;2023-04-06T00:45:34;8.60;99.90
54168;DHT22;68429;50.958;3.592;2023-04-06T00:48:00;8.60;99.90
54168;DHT22;68429;50.958;3.592;2023-04-06T00:50:27;8.60;99.90
54168;DHT22;68429;50.958;3.592;2023-04-06T00:52:54;8.60;99.90
54168;DHT22;68429;50.958;3.592;2023-04-06T00:55:20;8.70;99.90
54168;DHT22;68429;50.958;3.592;2023-04-06T00:57:46;8.80;99.90
54168;DHT22;68429;50.958;3.592;2023-04-06T01:00:13;8.80;99.90
54168;DHT22;68429;50.958;3.592;2023-04-06T01:02:38;8.80;99.90
54168;DHT22;68429;50.958;3.592;2023-04-06T01:05:05;8.80;99.90
54168;DHT22;68429;50.958;3.592;2023-04-06T01:07:30;8.80;99.90
54168;DHT22;68429;50.958;3.592;2023-04-06T01:09:57;8.90;99.90
54168;DHT22;68429;50.958;3.592;2023-04-06T01:12:23;8.90;99.90
54168;DHT22;68429;50.958;3.592;2023-04-06T01:14:49;8.90;99.90
54168;DHT22;68429;50.958;3.592;2023-04-06T01:17:15;8.90;99.90
54168;DHT22;68429;50.958;3.592;2023-04-06T01:19:41;9.00;99.90
54168;DHT22;68429;50.958;3.592;2023-04-06T01:22:07;9.00;99.90
54168;DHT22;68429;50.958;3.592;2023-04-06T01:24:33;9.10;99.90
54168;DHT22;68429;50.958;3.592;2023-04-06T01:26:58;9.20;99.90
54168;DHT22;68429;50.958;3.592;2023-04-06T01:29:24;9.30;99.90
54168;DHT22;68429;50.958;3.592;2023-04-06T01:31:50;9.20;99.90
54168;DHT22;68429;50.958;3.592;2023-04-06T01:34:16;9.10;99.90
54168;DHT22;68429;50.958;3.592;2023-04-06T01:36:42;9.00;99.90
54168;DHT22;68429;50.958;3.592;2023-04-06T01:39:08;9.00;99.90
54168;DHT22;68429;50.958;3.592;2023-04-06T01:41:33;8.90;99.90
54168;DHT22;68429;50.958;3.592;2023-04-06T01:43:59;8.90;99.90
54168;DHT22;68429;50.958;3.592;2023-04-06T01:46:25;8.80;99.90
54168;DHT22;68429;50.958;3.592;2023-04-06T01:48:51;8.80;99.90
54168;DHT22;68429;50.958;3.592;2023-04-06T01:51:17;9.00;99.90
54168;DHT22;68429;50.958;3.592;2023-04-06T01:53:43;8.80;99.90
54168;DHT22;68429;50.958;3.592;2023-04-06T01:56:08;8.70;99.90
54168;DHT22;68429;50.958;3.592;2023-04-06T01:58:34;8.70;99.90
54168;DHT22;68429;50.958;3.592;2023-04-06T02:01:00;8.70;99.90
54168;DHT22;68429;50.958;3.592;2023-04-06T02:03:26;8.70;99.90
54168;DHT22;68429;50.958;3.592;2023-04-06T02:05:52;8.70;99.90
54168;DHT22;68429;50.958;3.592;2023-04-06T02:08:17;8.70;99.90
54168;DHT22;68429;50.958;3.592;2023-04-06T02:10:43;8.70;99.90
54168;DHT22;68429;50.958;3.592;2023-04-06T02:13:09;8.80;99.90
54168;DHT22;68429;50.958;3.592;2023-04-06T02:15:34;8.70;99.90
54168;DHT22;68429;50.958;3.592;2023-04-06T02:18:00;8.80;99.90
54168;DHT22;68429;50.958;3.592;2023-04-06T02:20:26;8.90;99.90
54168;DHT22;68429;50.958;3.592;2023-04-06T02:22:51;8.80;99.90
54168;DHT22;68429;50.958;3.592;2023-04-06T02:25:17;8.90;99.90
54168;DHT22;68429;50.958;3.592;2023-04-06T02:27:43;8.80;99.90
54168;DHT22;68429;50.958;3.592;2023-04-06T02:30:09;8.60;99.90
54168;DHT22;68429;50.958;3.592;2023-04-06T02:32:35;8.60;99.90
54168;DHT22;68429;50.958;3.592;2023-04-06T02:35:00;8.40;99.90
54168;DHT22;68429;50.958;3.592;2023-04-06T02:37:26;8.20;99.90
54168;DHT22;68429;50.958;3.592;2023-04-06T02:39:52;8.00;99.90
54168;DHT22;68429;50.958;3.592;2023-04-06T02:42:17;7.90;99.90
54168;DHT22;68429;50.958;3.592;2023-04-06T02:44:43;8.20;99.90
54168;DHT22;68429;50.958;3.592;2023-04-06T02:47:09;8.20;99.90
54168;DHT22;68429;50.958;3.592;2023-04-06T02:49:35;8.20;99.90
54168;DHT22;68429;50.958;3.592;2023-04-06T02:52:01;8.20;99.90
54168;DHT22;68429;50.958;3.592;2023-04-06T02:54:27;8.20;99.90
54168;DHT22;68429;50.958;3.592;2023-04-06T02:56:52;8.20;99.90
54168;DHT22;68429;50.958;3.592;2023-04-06T02:59:18;8.10;99.90
54168;DHT22;68429;50.958;3.592;2023-04-06T03:01:44;8.10;99.90
54168;DHT22;68429;50.958;3.592;2023-04-06T03:04:09;8.00;99.90
54168;DHT22;68429;50.958;3.592;2023-04-06T03:06:36;8.10;99.90
54168;DHT22;68429;50.958;3.592;2023-04-06T03:09:02;8.10;99.90
54168;DHT22;68429;50.958;3.592;2023-04-06T03:11:27;8.00;99.90
54168;DHT22;68429;50.958;3.592;2023-04-06T03:13:53;7.90;99.90
54168;DHT22;68429;50.958;3.592;2023-04-06T03:16:19;7.90;99.90
54168;DHT22;68429;50.958;3.592;2023-04-06T03:18:45;7.90;99.90
54168;DHT22;68429;50.958;3.592;2023-04-06T03:21:12;7.90;99.90
54168;DHT22;68429;50.958;3.592;2023-04-06T03:23:40;7.90;99.90
54168;DHT22;68429;50.958;3.592;2023-04-06T03:26:06;7.90;99.90
54168;DHT22;68429;50.958;3.592;2023-04-06T03:28:32;7.90;99.90
54168;DHT22;68429;50.958;3.592;2023-04-06T03:30:57;7.90;99.90
54168;DHT22;68429;50.958;3.592;2023-04-06T03:33:23;7.80;99.90
54168;DHT22;68429;50.958;3.592;2023-04-06T03:35:49;7.90;99.90
54168;DHT22;68429;50.958;3.592;2023-04-06T03:38:14;8.00;99.90
54168;DHT22;68429;50.958;3.592;2023-04-06T03:40:40;8.20;99.90
54168;DHT22;68429;50.958;3.592;2023-04-06T03:43:06;8.00;99.90
54168;DHT22;68429;50.958;3.592;2023-04-06T03:45:31;7.80;99.90
54168;DHT22;68429;50.958;3.592;2023-04-06T03:47:57;7.80;99.90
54168;DHT22;68429;50.958;3.592;2023-04-06T03:50:23;7.70;99.90
54168;DHT22;68429;50.958;3.592;2023-04-06T03:52:48;7.70;99.90
54168;DHT22;68429;50.958;3.592;2023-04-06T03:55:14;7.70;99.90
54168;DHT22;68429;50.958;3.592;2023-04-06T03:57:40;7.60;99.90
54168;DHT22;68429;50.958;3.592;2023-04-06T04:00:06;7.60;99.90
54168;DHT22;68429;50.958;3.592;2023-04-06T04:02:32;7.70;99.90
54168;DHT22;68429;50.958;3.592;2023-04-06T04:04:58;7.60;99.90
54168;DHT22;68429;50.958;3.592;2023-04-06T04:07:23;7.70;99.90
54168;DHT22;68429;50.958;3.592;2023-04-06T04:09:49;7.70;99.90
54168;DHT22;68429;50.958;3.592;2023-04-06T04:12:14;7.70;99.90
54168;DHT22;68429;50.958;3.592;2023-04-06T04:14:42;7.70;99.90
54168;DHT22;68429;50.958;3.592;2023-04-06T04:17:08;7.70;99.90
54168;DHT22;68429;50.958;3.592;2023-04-06T04:19:33;7.80;99.90
54168;DHT22;68429;50.958;3.592;2023-04-06T04:21:59;7.80;99.90
54168;DHT22;68429;50.958;3.592;2023-04-06T04:24:25;7.80;99.90
54168;DHT22;68429;50.958;3.592;2023-04-06T04:26:51;7.80;99.90
54168;DHT22;68429;50.958;3.592;2023-04-06T04:29:17;7.80;99.90
54168;DHT22;68429;50.958;3.592;2023-04-06T04:31:46;7.80;99.90
54168;DHT22;68429;50.958;3.592;2023-04-06T04:34:12;7.80;99.90
54168;DHT22;68429;50.958;3.592;2023-04-06T04:36:37;7.80;99.90
54168;DHT22;68429;50.958;3.592;2023-04-06T04:39:03;7.80;99.90
54168;DHT22;68429;50.958;3.592;2023-04-06T04:41:29;7.60;99.90
54168;DHT22;68429;50.958;3.592;2023-04-06T04:43:54;7.60;99.90
54168;DHT22;68429;50.958;3.592;2023-04-06T04:46:20;7.60;99.90
54168;DHT22;68429;50.958;3.592;2023-04-06T04:48:46;7.50;99.90
54168;DHT22;68429;50.958;3.592;2023-04-06T04:51:11;7.40;99.90
54168;DHT22;68429;50.958;3.592;2023-04-06T04:53:37;7.40;99.90
54168;DHT22;68429;50.958;3.592;2023-04-06T04:56:03;7.40;99.90
54168;DHT22;68429;50.958;3.592;2023-04-06T04:58:29;7.30;99.90
54168;DHT22;68429;50.958;3.592;2023-04-06T05:00:54;7.30;99.90
54168;DHT22;68429;50.958;3.592;2023-04-06T05:03:25;7.30;99.90
54168;DHT22;68429;50.958;3.592;2023-04-06T05:05:51;7.20;99.90
54168;DHT22;68429;50.958;3.592;2023-04-06T05:08:17;7.20;99.90
54168;DHT22;68429;50.958;3.592;2023-04-06T05:10:43;7.20;99.90
54168;DHT22;68429;50.958;3.592;2023-04-06T05:13:09;7.20;99.90
54168;DHT22;68429;50.958;3.592;2023-04-06T05:15:35;7.20;99.90
